Time;durP1;ratioP1;P1;durP2;ratioP2;P2;SDS_P1;SDS_P2;PMS_P1;PMS_P2;Temp;Humidity;BMP_temperature;BMP_pressure;BME280_temperature;BME280_humidity;BME280_pressure;Samples;Min_cycle;Max_cycle;Signal;HPM_P1;HPM_P2
2023/07/17 00:01:40;;;;;;;7.03;1.77;;;19.20;99.90;;;;;;5027877;28;20122;-52
2023/07/17 00:04:06;;;;;;;4.05;1.80;;;19.20;99.90;;;;;;5031079;28;20108;-53
2023/07/17 00:06:31;;;;;;;4.00;1.30;;;19.30;99.90;;;;;;5028425;28;20537;-55
2023/07/17 00:08:57;;;;;;;4.25;1.48;;;19.30;99.90;;;;;;5029949;28;20040;-57
2023/07/17 00:11:23;;;;;;;2.33;1.27;;;19.20;99.90;;;;;;5029773;28;20052;-55
2023/07/17 00:13:49;;;;;;;5.82;1.95;;;19.20;99.90;;;;;;5028539;28;20525;-52
2023/07/17 00:16:14;;;;;;;2.88;1.60;;;19.10;99.90;;;;;;5030143;28;20025;-55
2023/07/17 00:18:40;;;;;;;6.03;1.58;;;19.00;99.90;;;;;;5027515;28;20033;-55
2023/07/17 00:21:06;;;;;;;5.38;1.80;;;18.90;99.90;;;;;;5013745;28;20029;-54
2023/07/17 00:23:32;;;;;;;4.88;1.48;;;18.90;99.90;;;;;;5025778;28;20099;-59
2023/07/17 00:25:58;;;;;;;2.90;2.10;;;18.90;99.90;;;;;;5032399;28;20038;-55
2023/07/17 00:28:24;;;;;;;3.78;1.58;;;18.80;99.90;;;;;;5025162;28;20035;-50
2023/07/17 00:30:50;;;;;;;6.68;1.92;;;18.70;99.90;;;;;;5014510;28;20045;-55
2023/07/17 00:33:16;;;;;;;4.22;1.50;;;18.70;99.90;;;;;;5013032;28;20104;-56
2023/07/17 00:35:42;;;;;;;4.90;1.80;;;18.70;99.90;;;;;;5032280;28;20584;-53
2023/07/17 00:38:08;;;;;;;3.80;1.65;;;18.70;99.90;;;;;;5013703;28;20436;-55
2023/07/17 00:40:37;;;;;;;3.78;1.67;;;18.60;99.90;;;;;;5032026;28;20040;-56
2023/07/17 00:43:10;;;;;;;3.75;1.45;;;18.50;99.90;;;;;;5013767;28;20191;-54
2023/07/17 00:45:37;;;;;;;6.75;1.70;;;18.50;99.90;;;;;;5014777;28;20029;-55
2023/07/17 00:48:03;;;;;;;3.38;1.45;;;18.50;99.90;;;;;;5014022;28;20528;-54
2023/07/17 00:50:29;;;;;;;3.28;1.92;;;18.50;99.90;;;;;;5014338;28;20037;-55
2023/07/17 00:52:56;;;;;;;5.53;2.28;;;18.50;99.90;;;;;;5024297;28;20038;-57
2023/07/17 00:55:22;;;;;;;6.57;1.90;;;18.50;99.90;;;;;;5031734;28;20025;-52
2023/07/17 00:57:52;;;;;;;3.97;1.60;;;18.50;99.90;;;;;;5013707;28;20025;-55
2023/07/17 01:00:23;;;;;;;7.97;1.45;;;18.50;99.90;;;;;;4994618;28;20036;-55
2023/07/17 01:02:54;;;;;;;3.15;1.15;;;18.50;99.90;;;;;;5001534;28;20049;-52
2023/07/17 01:05:20;;;;;;;4.13;1.25;;;18.50;99.90;;;;;;5013218;28;20056;-53
2023/07/17 01:07:46;;;;;;;5.28;1.73;;;18.50;99.90;;;;;;5014225;28;20473;-54
2023/07/17 01:10:12;;;;;;;3.53;2.05;;;18.50;99.90;;;;;;5038706;28;20095;-54
2023/07/17 01:12:38;;;;;;;3.83;2.13;;;18.40;99.90;;;;;;5013092;28;20412;-56
2023/07/17 01:15:06;;;;;;;2.85;1.05;;;18.40;99.90;;;;;;5031529;28;20540;-55
2023/07/17 01:17:32;;;;;;;6.20;1.63;;;18.30;99.90;;;;;;5006123;28;20105;-54
2023/07/17 01:19:58;;;;;;;10.73;2.00;;;18.40;99.90;;;;;;5031404;28;20095;-54
2023/07/17 01:22:31;;;;;;;7.03;2.00;;;18.40;99.90;;;;;;5027878;28;20029;-57
2023/07/17 01:24:57;;;;;;;5.72;1.60;;;18.40;99.90;;;;;;5021689;28;20037;-55
2023/07/17 01:27:22;;;;;;;5.50;1.85;;;18.30;99.90;;;;;;5012738;28;20389;-52
2023/07/17 01:29:48;;;;;;;3.05;1.40;;;18.30;99.90;;;;;;5031431;28;20045;-55
2023/07/17 01:32:15;;;;;;;3.33;1.77;;;18.40;99.90;;;;;;5024112;28;20112;-55
2023/07/17 01:34:41;;;;;;;3.92;1.70;;;18.40;99.90;;;;;;5013410;28;20446;-56
2023/07/17 01:37:10;;;;;;;3.35;1.50;;;18.40;99.90;;;;;;5011481;28;20038;-55
2023/07/17 01:39:36;;;;;;;6.32;1.90;;;18.40;99.90;;;;;;5031115;28;20021;-51
2023/07/17 01:42:02;;;;;;;7.18;1.42;;;18.40;99.90;;;;;;5023652;28;20398;-51
2023/07/17 01:44:28;;;;;;;5.93;2.17;;;18.30;99.90;;;;;;5030481;28;20108;-56
2023/07/17 01:46:58;;;;;;;2.67;1.23;;;18.40;99.90;;;;;;5023462;28;20038;-55
2023/07/17 01:49:24;;;;;;;3.22;1.38;;;18.30;99.90;;;;;;5013494;28;20057;-57
2023/07/17 01:51:49;;;;;;;2.70;1.40;;;18.20;99.90;;;;;;5024062;28;20038;-53
2023/07/17 01:54:15;;;;;;;3.70;1.65;;;18.20;99.90;;;;;;5012829;28;20048;-52
2023/07/17 01:56:41;;;;;;;5.80;2.35;;;18.20;99.90;;;;;;5024785;28;20105;-55
2023/07/17 01:59:06;;;;;;;5.47;1.83;;;18.20;99.90;;;;;;5029242;28;20034;-54
2023/07/17 02:01:33;;;;;;;3.55;1.75;;;18.10;99.90;;;;;;5026456;28;20045;-57
2023/07/17 02:04:00;;;;;;;5.47;1.88;;;18.10;99.90;;;;;;5027246;28;20065;-57
2023/07/17 02:06:26;;;;;;;6.35;2.17;;;18.00;99.90;;;;;;5026876;28;20025;-56
2023/07/17 02:08:51;;;;;;;5.07;2.30;;;18.10;99.90;;;;;;5027055;28;20029;-56
2023/07/17 02:11:17;;;;;;;4.53;2.38;;;17.90;99.90;;;;;;5010601;28;20052;-55
2023/07/17 02:13:43;;;;;;;6.32;1.50;;;17.80;99.90;;;;;;5025547;28;20091;-55
2023/07/17 02:16:08;;;;;;;5.88;1.85;;;17.80;99.90;;;;;;5029207;28;20045;-57
2023/07/17 02:18:34;;;;;;;2.70;1.73;;;17.70;99.90;;;;;;5024485;28;20397;-55
2023/07/17 02:21:00;;;;;;;4.13;1.85;;;17.70;99.90;;;;;;5030156;28;20025;-57
2023/07/17 02:23:26;;;;;;;7.45;1.73;;;17.60;99.90;;;;;;5023585;28;20389;-54
2023/07/17 02:25:52;;;;;;;4.75;2.10;;;17.60;99.90;;;;;;5030421;28;20062;-58
2023/07/17 02:28:18;;;;;;;6.50;1.65;;;17.60;99.90;;;;;;5021533;28;20079;-54
2023/07/17 02:30:43;;;;;;;13.00;2.05;;;17.60;99.90;;;;;;5012518;28;20512;-56
2023/07/17 02:33:09;;;;;;;7.57;2.55;;;17.60;99.90;;;;;;5022897;28;20448;-54
2023/07/17 02:35:35;;;;;;;4.13;2.10;;;17.60;99.90;;;;;;5030368;28;20088;-53
2023/07/17 02:38:00;;;;;;;4.82;1.90;;;17.50;99.90;;;;;;5023164;28;20116;-52
2023/07/17 02:40:26;;;;;;;2.67;1.48;;;17.40;99.90;;;;;;5029141;28;20108;-55
2023/07/17 02:42:52;;;;;;;2.45;1.50;;;17.40;99.90;;;;;;5021751;28;20029;-51
2023/07/17 02:45:18;;;;;;;5.20;2.17;;;17.40;99.90;;;;;;5021460;28;20504;-53
2023/07/17 02:47:43;;;;;;;7.05;2.40;;;17.40;99.90;;;;;;5022942;28;20045;-52
2023/07/17 02:50:10;;;;;;;4.28;2.33;;;17.30;99.90;;;;;;5030020;28;20033;-57
2023/07/17 02:52:36;;;;;;;5.25;1.60;;;17.30;99.90;;;;;;5011588;28;20113;-54
2023/07/17 02:55:05;;;;;;;10.52;1.90;;;17.30;99.90;;;;;;5030872;28;20481;-56
2023/07/17 02:57:36;;;;;;;3.72;1.85;;;17.30;99.90;;;;;;5015981;28;20374;-57
2023/07/17 03:00:14;;;;;;;4.10;2.03;;;17.30;99.90;;;;;;5015851;28;20108;-57
2023/07/17 03:02:44;;;;;;;3.97;1.45;;;17.20;99.90;;;;;;5016330;28;20036;-59
2023/07/17 03:05:11;;;;;;;2.25;1.55;;;17.20;99.90;;;;;;5016375;28;20034;-58
2023/07/17 03:07:41;;;;;;;8.88;1.85;;;17.30;99.90;;;;;;5026434;28;20428;-57
2023/07/17 03:10:08;;;;;;;5.78;2.90;;;17.30;99.90;;;;;;5033348;28;20116;-58
2023/07/17 03:12:34;;;;;;;3.72;2.05;;;17.30;99.90;;;;;;5015258;28;20739;-58
2023/07/17 03:15:00;;;;;;;5.25;1.95;;;17.30;99.90;;;;;;5033595;28;20025;-59
2023/07/17 03:17:26;;;;;;;3.33;1.38;;;17.30;99.90;;;;;;5026371;28;20122;-58
2023/07/17 03:19:52;;;;;;;2.88;1.90;;;17.30;99.90;;;;;;5016098;28;20803;-55
2023/07/17 03:22:18;;;;;;;4.53;2.13;;;17.40;99.90;;;;;;5026157;28;20022;-58
2023/07/17 03:24:44;;;;;;;2.78;1.67;;;17.40;99.90;;;;;;5033574;28;20049;-57
2023/07/17 03:27:10;;;;;;;3.65;1.58;;;17.40;99.90;;;;;;5014549;28;20108;-56
2023/07/17 03:29:36;;;;;;;7.63;2.22;;;17.20;99.90;;;;;;5033418;28;20096;-56
2023/07/17 03:32:02;;;;;;;4.57;2.90;;;17.20;99.90;;;;;;5026067;28;20114;-57
2023/07/17 03:34:27;;;;;;;3.85;2.10;;;17.10;99.90;;;;;;5033103;28;20064;-58
2023/07/17 03:36:53;;;;;;;7.03;2.05;;;17.10;99.90;;;;;;5026501;28;20073;-55
2023/07/17 03:39:19;;;;;;;2.35;1.48;;;17.10;99.90;;;;;;5032985;28;20418;-57
2023/07/17 03:41:45;;;;;;;7.20;2.90;;;17.10;99.90;;;;;;5027161;28;20539;-58
2023/07/17 03:44:12;;;;;;;5.68;1.80;;;17.20;99.90;;;;;;5031849;28;20740;-56
2023/07/17 03:46:38;;;;;;;3.33;2.13;;;17.20;99.90;;;;;;5029796;28;20044;-56
2023/07/17 03:49:04;;;;;;;5.78;3.08;;;17.10;99.90;;;;;;5032828;28;20041;-57
2023/07/17 03:51:29;;;;;;;4.50;1.70;;;17.30;99.90;;;;;;5029039;28;20030;-56
2023/07/17 03:53:55;;;;;;;3.10;1.83;;;17.20;99.90;;;;;;5029759;28;20017;-56
2023/07/17 03:56:21;;;;;;;5.68;2.58;;;17.20;99.90;;;;;;5029883;28;20164;-56
2023/07/17 03:58:47;;;;;;;4.53;2.38;;;17.20;99.90;;;;;;5038433;22;20049;-52
2023/07/17 04:01:13;;;;;;;6.00;2.63;;;17.10;99.90;;;;;;5011210;28;20388;-53
2023/07/17 04:03:39;;;;;;;5.78;2.35;;;17.10;99.90;;;;;;5028462;28;20029;-54
2023/07/17 04:06:05;;;;;;;2.88;1.50;;;17.00;99.90;;;;;;5029685;28;20379;-56
2023/07/17 04:08:31;;;;;;;4.45;2.45;;;17.00;99.90;;;;;;5021728;28;20026;-54
2023/07/17 04:10:57;;;;;;;9.18;2.28;;;16.90;99.90;;;;;;5001580;28;20569;-56
2023/07/17 04:13:23;;;;;;;5.40;1.95;;;16.90;99.90;;;;;;5007665;28;20029;-54
2023/07/17 04:15:48;;;;;;;6.03;2.30;;;16.80;99.90;;;;;;5025619;28;20452;-56
2023/07/17 04:18:15;;;;;;;4.85;2.22;;;16.70;99.90;;;;;;5029333;28;20034;-56
2023/07/17 04:20:42;;;;;;;7.60;2.13;;;16.70;99.90;;;;;;5002882;28;20033;-55
2023/07/17 04:23:08;;;;;;;5.43;2.38;;;16.80;99.90;;;;;;5031147;28;20029;-53
2023/07/17 04:25:39;;;;;;;4.45;1.98;;;16.80;99.90;;;;;;5023939;28;20048;-55
2023/07/17 04:28:05;;;;;;;4.53;2.22;;;16.90;99.90;;;;;;4987533;28;20057;-55
2023/07/17 04:30:31;;;;;;;6.03;1.80;;;16.90;99.90;;;;;;4998633;28;20105;-57
2023/07/17 04:32:58;;;;;;;4.43;2.03;;;16.90;99.90;;;;;;4997904;28;20764;-54
2023/07/17 04:35:24;;;;;;;4.10;2.30;;;17.00;99.90;;;;;;4999640;28;20119;-53
2023/07/17 04:37:50;;;;;;;19.48;8.63;;;17.00;99.90;;;;;;4995638;28;20121;-53
2023/07/17 04:40:17;;;;;;;10.00;2.58;;;17.10;99.90;;;;;;5000364;28;20098;-53
2023/07/17 04:42:43;;;;;;;7.43;2.45;;;17.20;99.90;;;;;;4994329;28;20152;-55
2023/07/17 04:45:09;;;;;;;4.75;2.33;;;17.20;99.90;;;;;;4996487;28;20057;-52
2023/07/17 04:47:35;;;;;;;7.05;1.98;;;17.50;99.90;;;;;;4999391;28;20144;-54
2023/07/17 04:50:01;;;;;;;7.75;1.98;;;17.40;99.90;;;;;;4995418;28;20053;-55
2023/07/17 04:52:27;;;;;;;4.05;2.00;;;17.40;99.90;;;;;;4997778;28;20077;-55
2023/07/17 04:54:53;;;;;;;6.53;2.38;;;17.40;99.90;;;;;;4998252;28;20069;-51
2023/07/17 04:57:19;;;;;;;3.03;2.05;;;17.40;99.90;;;;;;4998797;28;20029;-52
2023/07/17 04:59:44;;;;;;;8.18;2.38;;;17.50;99.90;;;;;;4984597;28;20033;-53
2023/07/17 05:02:10;;;;;;;4.47;2.60;;;17.50;99.90;;;;;;5000300;28;20037;-52
2023/07/17 05:04:36;;;;;;;3.25;1.95;;;17.50;99.90;;;;;;4981536;28;20040;-56
2023/07/17 05:07:02;;;;;;;4.75;2.08;;;17.70;99.90;;;;;;4979172;28;20026;-54
2023/07/17 05:09:28;;;;;;;8.30;1.70;;;17.80;99.90;;;;;;5019331;28;20134;-54
2023/07/17 05:11:54;;;;;;;3.65;2.53;;;17.90;99.90;;;;;;5016084;28;20037;-54
2023/07/17 05:14:20;;;;;;;4.72;2.63;;;18.00;99.90;;;;;;4993687;28;20033;-52
2023/07/17 05:16:46;;;;;;;6.32;2.55;;;18.30;99.90;;;;;;5017666;28;20036;-54
2023/07/17 05:19:11;;;;;;;5.68;1.95;;;18.30;99.90;;;;;;5022105;28;20172;-54
2023/07/17 05:21:37;;;;;;;4.93;2.17;;;18.30;99.90;;;;;;5030918;28;20116;-54
2023/07/17 05:24:03;;;;;;;7.65;2.42;;;18.60;99.90;;;;;;5017230;28;20035;-56
2023/07/17 05:26:29;;;;;;;4.10;1.98;;;18.50;99.90;;;;;;5025140;28;20041;-55
2023/07/17 05:28:54;;;;;;;5.05;2.05;;;18.50;99.90;;;;;;5013425;28;20037;-55
2023/07/17 05:31:21;;;;;;;4.30;2.15;;;18.60;99.90;;;;;;5024902;28;20030;-54
2023/07/17 05:33:46;;;;;;;3.05;1.55;;;18.60;99.90;;;;;;5030889;28;20026;-56
2023/07/17 05:36:12;;;;;;;4.07;2.45;;;18.70;99.90;;;;;;5024262;28;20079;-52
2023/07/17 05:38:38;;;;;;;4.68;1.98;;;18.70;99.90;;;;;;5023239;28;20072;-55
2023/07/17 05:41:04;;;;;;;8.10;2.30;;;18.80;99.90;;;;;;5028671;28;20037;-55
2023/07/17 05:43:33;;;;;;;5.03;2.42;;;18.90;99.90;;;;;;5016877;28;20081;-53
2023/07/17 05:45:59;;;;;;;4.72;2.33;;;18.90;99.90;;;;;;5025716;28;20111;-56
2023/07/17 05:48:25;;;;;;;5.03;2.05;;;19.00;99.90;;;;;;5021634;28;20490;-54
2023/07/17 05:50:50;;;;;;;4.82;2.25;;;19.00;99.90;;;;;;5023454;28;20061;-57
2023/07/17 05:53:16;;;;;;;11.02;2.22;;;19.00;99.90;;;;;;5023810;28;20034;-53
2023/07/17 05:55:44;;;;;;;7.28;2.70;;;19.10;99.90;;;;;;5010884;28;20045;-53
2023/07/17 05:58:09;;;;;;;6.10;2.83;;;19.10;99.90;;;;;;5022603;28;20037;-52
2023/07/17 06:00:35;;;;;;;5.70;1.80;;;19.10;99.90;;;;;;5016172;28;20034;-50
2023/07/17 06:03:01;;;;;;;6.60;2.83;;;19.20;99.90;;;;;;5019542;28;20029;-53
2023/07/17 06:05:26;;;;;;;5.57;2.80;;;19.20;99.90;;;;;;4978755;28;20040;-55
2023/07/17 06:07:52;;;;;;;4.55;2.75;;;19.30;99.90;;;;;;5012243;28;20049;-55
2023/07/17 06:10:18;;;;;;;5.38;2.42;;;19.30;99.90;;;;;;5008505;28;20037;-60
2023/07/17 06:12:44;;;;;;;5.75;2.15;;;19.30;99.90;;;;;;5010871;28;20025;-60
2023/07/17 06:15:13;;;;;;;6.07;2.35;;;19.50;99.90;;;;;;5005955;28;20997;-60
2023/07/17 06:17:39;;;;;;;5.25;2.95;;;19.60;99.90;;;;;;4983324;28;20632;-60
2023/07/17 06:20:08;;;;;;;4.82;2.47;;;19.50;99.90;;;;;;5002672;28;20025;-60
2023/07/17 06:22:33;;;;;;;6.00;2.70;;;19.60;99.90;;;;;;4981514;28;20105;-60
2023/07/17 06:24:59;;;;;;;5.18;2.20;;;19.70;99.90;;;;;;5000017;28;20485;-60
2023/07/17 06:27:25;;;;;;;6.50;3.22;;;19.80;99.90;;;;;;5016267;28;20033;-59
2023/07/17 06:29:51;;;;;;;6.13;2.92;;;19.90;99.90;;;;;;5016474;28;20026;-60
2023/07/17 06:32:16;;;;;;;6.95;2.97;;;20.00;99.90;;;;;;5013579;28;20065;-60
2023/07/17 06:34:42;;;;;;;11.27;3.03;;;20.10;99.90;;;;;;5004763;28;20057;-60
2023/07/17 06:37:08;;;;;;;4.63;2.13;;;20.10;99.90;;;;;;5015057;28;20036;-59
2023/07/17 06:39:34;;;;;;;3.97;1.88;;;20.30;99.90;;;;;;5025482;28;20052;-59
2023/07/17 06:41:59;;;;;;;8.07;2.60;;;20.20;99.90;;;;;;5014429;28;20034;-59
2023/07/17 06:44:25;;;;;;;7.03;2.83;;;20.30;99.90;;;;;;5013656;28;20087;-58
2023/07/17 06:46:51;;;;;;;5.45;2.38;;;20.40;99.90;;;;;;5008602;28;20525;-59
2023/07/17 06:49:17;;;;;;;7.90;2.78;;;20.50;99.90;;;;;;5021602;28;20511;-58
2023/07/17 06:51:42;;;;;;;8.20;2.80;;;20.60;99.90;;;;;;5018757;28;20757;-58
2023/07/17 06:54:08;;;;;;;6.25;2.35;;;20.60;99.90;;;;;;5029442;28;20064;-59
2023/07/17 06:56:34;;;;;;;5.10;2.63;;;20.70;99.90;;;;;;5011621;28;20026;-59
2023/07/17 06:59:01;;;;;;;9.95;2.45;;;20.80;99.90;;;;;;5013579;28;20034;-60
2023/07/17 07:01:26;;;;;;;8.05;2.67;;;20.90;99.90;;;;;;5009200;28;20503;-59
2023/07/17 07:03:52;;;;;;;7.35;2.53;;;21.00;99.90;;;;;;5028779;28;20124;-60
2023/07/17 07:06:18;;;;;;;8.35;2.67;;;21.00;99.90;;;;;;5018983;28;20030;-58
2023/07/17 07:08:43;;;;;;;4.57;2.40;;;21.00;99.90;;;;;;5029350;28;20060;-58
2023/07/17 07:11:11;;;;;;;4.82;2.00;;;21.10;99.90;;;;;;5018581;28;20038;-58
2023/07/17 07:13:36;;;;;;;5.55;2.03;;;21.30;99.90;;;;;;5025690;28;20104;-58
2023/07/17 07:16:03;;;;;;;4.05;1.83;;;21.30;99.90;;;;;;5018451;28;20153;-59
2023/07/17 07:18:29;;;;;;;5.88;2.05;;;21.40;99.90;;;;;;5029221;28;20033;-59
2023/07/17 07:20:55;;;;;;;3.67;1.60;;;21.50;99.90;;;;;;5018282;28;20065;-58
2023/07/17 07:23:20;;;;;;;5.30;1.90;;;21.70;99.90;;;;;;5029524;28;20032;-58
2023/07/17 07:25:47;;;;;;;3.53;1.42;;;21.60;99.90;;;;;;5020671;28;20026;-58
2023/07/17 07:28:12;;;;;;;3.70;1.85;;;21.60;99.90;;;;;;5027873;28;20087;-59
2023/07/17 07:30:39;;;;;;;2.78;1.30;;;21.70;99.90;;;;;;5022735;28;20042;-58
2023/07/17 07:33:05;;;;;;;3.03;1.88;;;21.70;99.90;;;;;;5009188;28;20032;-59
2023/07/17 07:35:31;;;;;;;4.38;1.90;;;21.80;99.90;;;;;;5024608;28;20037;-58
2023/07/17 07:37:57;;;;;;;3.40;1.50;;;22.00;99.90;;;;;;5023848;28;20116;-58
2023/07/17 07:40:23;;;;;;;29.25;2.13;;;22.00;99.90;;;;;;5009013;28;20033;-60
2023/07/17 07:42:49;;;;;;;5.88;1.60;;;22.10;99.90;;;;;;5021723;28;20462;-57
2023/07/17 07:45:16;;;;;;;9.93;2.20;;;22.20;99.90;;;;;;5031398;28;20116;-58
2023/07/17 07:47:42;;;;;;;5.88;1.83;;;22.30;99.90;;;;;;5027836;28;20029;-58
2023/07/17 07:50:10;;;;;;;3.85;1.50;;;22.40;99.90;;;;;;5032714;28;20037;-60
2023/07/17 07:52:36;;;;;;;6.40;1.77;;;22.50;99.90;;;;;;5024517;28;20047;-59
2023/07/17 07:55:02;;;;;;;4.30;1.83;;;22.60;99.90;;;;;;5007718;28;20029;-58
2023/07/17 07:57:28;;;;;;;3.13;1.67;;;22.50;99.90;;;;;;5021722;28;20033;-59
2023/07/17 07:59:54;;;;;;;4.53;2.10;;;22.50;99.90;;;;;;5032888;28;20035;-59
2023/07/17 08:02:20;;;;;;;8.77;3.08;;;22.50;99.90;;;;;;5020729;28;20037;-56
2023/07/17 08:04:45;;;;;;;3.20;1.67;;;22.60;99.90;;;;;;5006905;28;20041;-58
2023/07/17 08:07:11;;;;;;;4.10;1.95;;;22.70;99.90;;;;;;5006192;28;20045;-59
2023/07/17 08:09:37;;;;;;;1.58;1.00;;;22.90;97.40;;;;;;5014222;28;20033;-56
2023/07/17 08:12:04;;;;;;;2.10;1.15;;;23.00;97.50;;;;;;5021785;28;20037;-57
2023/07/17 08:14:30;;;;;;;4.22;1.60;;;23.20;98.40;;;;;;5010901;28;20037;-58
2023/07/17 08:16:56;;;;;;;6.55;2.22;;;23.20;97.90;;;;;;5021512;28;20244;-58
2023/07/17 08:19:22;;;;;;;3.75;1.40;;;23.30;98.40;;;;;;5014417;28;20026;-58
2023/07/17 08:21:48;;;;;;;4.13;1.20;;;23.30;98.00;;;;;;5021798;28;20393;-60
2023/07/17 08:24:13;;;;;;;3.67;1.58;;;23.30;98.00;;;;;;5003891;28;20040;-60
2023/07/17 08:26:40;;;;;;;4.93;1.88;;;23.40;97.10;;;;;;5030605;28;20037;-59
2023/07/17 08:29:06;;;;;;;4.47;1.45;;;23.40;97.40;;;;;;5020887;28;20108;-58
2023/07/17 08:31:33;;;;;;;5.50;1.65;;;23.60;96.50;;;;;;5031872;28;20308;-60
2023/07/17 08:34:03;;;;;;;2.70;1.10;;;23.70;96.10;;;;;;5020957;28;20066;-59
2023/07/17 08:36:31;;;;;;;3.97;1.35;;;23.80;95.80;;;;;;5008306;28;20136;-60
2023/07/17 08:38:57;;;;;;;3.45;1.10;;;24.00;96.00;;;;;;4995700;28;20033;-59
2023/07/17 08:41:23;;;;;;;4.38;1.30;;;24.10;95.70;;;;;;5016287;28;20140;-59
2023/07/17 08:43:49;;;;;;;3.15;1.38;;;24.20;94.80;;;;;;5023932;28;20025;-60
2023/07/17 08:46:16;;;;;;;4.70;1.48;;;24.30;94.20;;;;;;5028566;28;20037;-60
2023/07/17 08:48:43;;;;;;;4.65;1.63;;;24.40;94.30;;;;;;5008902;28;20460;-60
2023/07/17 08:51:14;;;;;;;4.80;1.80;;;24.20;93.70;;;;;;5016990;28;20041;-59
2023/07/17 08:53:42;;;;;;;3.72;1.05;;;24.20;93.90;;;;;;5002764;28;20029;-60
2023/07/17 08:56:11;;;;;;;4.30;1.02;;;24.40;93.80;;;;;;5024427;28;20036;-61
2023/07/17 08:58:37;;;;;;;4.55;1.17;;;24.50;86.00;;;;;;5021760;28;20053;-60
2023/07/17 09:01:04;;;;;;;3.42;1.08;;;24.70;84.00;;;;;;5031523;28;20030;-61
2023/07/17 09:03:32;;;;;;;5.78;1.40;;;24.50;84.90;;;;;;5018567;28;20382;-61
2023/07/17 09:06:02;;;;;;;2.78;1.08;;;24.40;86.00;;;;;;5031811;28;20033;-61
2023/07/17 09:08:28;;;;;;;3.63;1.08;;;24.60;88.10;;;;;;5001015;28;20048;-61
2023/07/17 09:11:08;;;;;;;2.83;0.95;;;24.80;86.00;;;;;;5031264;28;20037;-61
2023/07/17 09:13:44;;;;;;;3.45;1.17;;;24.80;84.80;;;;;;5021208;28;20029;-60
2023/07/17 09:16:19;;;;;;;2.97;1.30;;;24.80;83.80;;;;;;5030161;28;20144;-60
2023/07/17 09:18:50;;;;;;;3.42;1.05;;;24.80;83.20;;;;;;5004579;28;20029;-60
2023/07/17 09:21:22;;;;;;;3.20;1.25;;;24.90;85.40;;;;;;5028563;28;20443;-60
2023/07/17 09:23:57;;;;;;;2.75;1.23;;;24.90;84.90;;;;;;5003301;28;20064;-60
2023/07/17 09:26:28;;;;;;;3.13;1.27;;;24.80;86.10;;;;;;4993752;28;20031;-60
2023/07/17 09:28:56;;;;;;;2.53;1.13;;;24.90;84.80;;;;;;5006923;28;20393;-60
2023/07/17 09:31:27;;;;;;;4.85;1.40;;;24.90;83.20;;;;;;5008831;28;20429;-60
2023/07/17 09:33:55;;;;;;;2.78;1.33;;;24.90;81.10;;;;;;5010295;28;20485;-59
2023/07/17 09:36:21;;;;;;;3.65;1.33;;;25.10;82.00;;;;;;5027661;28;20041;-61
2023/07/17 09:38:56;;;;;;;7.47;1.70;;;25.20;81.90;;;;;;5022636;28;20083;-61
2023/07/17 09:41:28;;;;;;;2.67;0.90;;;25.20;79.80;;;;;;4991512;28;20033;-61
2023/07/17 09:44:01;;;;;;;5.13;1.35;;;25.50;79.00;;;;;;5003766;28;20052;-61
2023/07/17 09:46:28;;;;;;;2.45;1.00;;;25.60;76.60;;;;;;5004035;28;20022;-61
2023/07/17 09:48:55;;;;;;;3.42;1.35;;;25.70;76.60;;;;;;5020155;28;20037;-60
2023/07/17 09:51:22;;;;;;;3.72;1.70;;;25.70;75.50;;;;;;5028040;28;20033;-61
2023/07/17 09:53:48;;;;;;;4.35;1.13;;;25.60;75.30;;;;;;5004698;28;20041;-60
2023/07/17 09:56:16;;;;;;;4.03;1.50;;;25.60;75.20;;;;;;5026188;28;20033;-59
2023/07/17 09:58:48;;;;;;;4.28;1.80;;;25.60;74.90;;;;;;5033135;22;20406;-59
2023/07/17 10:01:19;;;;;;;6.30;1.60;;;25.70;74.20;;;;;;5005935;28;20041;-57
2023/07/17 10:03:47;;;;;;;4.35;1.40;;;25.40;72.50;;;;;;4980984;28;20119;-58
2023/07/17 10:06:16;;;;;;;2.85;1.30;;;25.30;73.20;;;;;;4999852;28;20528;-60
2023/07/17 10:08:49;;;;;;;2.65;1.00;;;25.30;72.20;;;;;;4994506;28;20036;-59
2023/07/17 10:11:16;;;;;;;4.28;1.63;;;25.50;73.20;;;;;;4997919;28;20117;-59
2023/07/17 10:13:48;;;;;;;3.33;1.63;;;25.30;72.80;;;;;;4977773;28;20023;-59
2023/07/17 10:16:17;;;;;;;1.75;0.90;;;25.40;72.50;;;;;;4980449;28;20061;-60
2023/07/17 10:18:55;;;;;;;2.65;1.15;;;25.50;71.90;;;;;;4988259;28;20422;-60
2023/07/17 10:21:22;;;;;;;4.88;1.75;;;25.50;72.00;;;;;;4983252;28;20094;-60
2023/07/17 10:23:50;;;;;;;7.05;1.50;;;25.60;71.20;;;;;;5006068;28;20057;-59
2023/07/17 10:26:20;;;;;;;5.15;1.67;;;25.90;71.60;;;;;;4980223;28;20516;-59
2023/07/17 10:28:53;;;;;;;3.53;1.30;;;26.10;71.70;;;;;;5005601;28;20033;-58
2023/07/17 10:31:24;;;;;;;3.15;1.58;;;26.10;68.50;;;;;;4979341;28;20536;-58
2023/07/17 10:33:51;;;;;;;;;;;26.20;68.80;;;;;;5005462;28;20037;-58
2023/07/17 10:36:19;;;;;;;15.60;2.00;;;26.20;69.60;;;;;;4996944;28;20025;-58
2023/07/17 10:38:51;;;;;;;2.67;0.88;;;26.20;68.30;;;;;;5005666;28;20405;-58
2023/07/17 10:41:16;;;;;;;6.80;1.70;;;26.30;67.50;;;;;;4997120;28;20023;-58
2023/07/17 10:44:03;;;;;;;12.82;1.67;;;26.30;64.70;;;;;;4995066;28;20030;-59
2023/07/17 10:46:35;;;;;;;4.57;1.63;;;26.30;63.80;;;;;;4984407;28;20034;-56
2023/07/17 10:49:09;;;;;;;3.67;1.40;;;25.80;65.20;;;;;;4998996;28;20029;-58
2023/07/17 10:51:41;;;;;;;4.32;1.05;;;25.80;66.70;;;;;;4984952;28;20033;-57
2023/07/17 10:54:07;;;;;;;2.65;1.30;;;25.80;65.80;;;;;;4986506;28;20034;-57
2023/07/17 10:56:33;;;;;;;6.13;1.50;;;26.10;65.60;;;;;;4982423;28;20034;-57
2023/07/17 10:58:59;;;;;;;6.70;1.27;;;26.00;65.20;;;;;;4982091;28;20054;-57
2023/07/17 11:01:25;;;;;;;6.28;1.88;;;25.70;65.00;;;;;;4966653;28;20506;-56
2023/07/17 11:03:53;;;;;;;2.55;1.23;;;25.70;64.40;;;;;;4997775;28;20459;-57
2023/07/17 11:06:23;;;;;;;2.72;1.40;;;25.90;65.00;;;;;;4963343;28;20034;-57
2023/07/17 11:08:50;;;;;;;4.60;1.80;;;25.90;65.00;;;;;;5006180;28;20452;-58
2023/07/17 11:11:17;;;;;;;3.70;1.20;;;26.00;64.20;;;;;;4979735;28;20034;-57
2023/07/17 11:13:48;;;;;;;1.90;1.10;;;26.10;62.50;;;;;;4977520;28;20023;-57
2023/07/17 11:16:14;;;;;;;2.80;1.30;;;26.00;62.40;;;;;;4994642;28;20570;-55
2023/07/17 11:18:50;;;;;;;2.75;1.30;;;26.10;62.00;;;;;;4991211;28;20029;-56
2023/07/17 11:21:22;;;;;;;2.58;1.25;;;26.30;62.50;;;;;;5000792;28;20030;-56
2023/07/17 11:23:50;;;;;;;5.43;1.17;;;26.80;61.40;;;;;;5009295;28;20037;-56
2023/07/17 11:26:28;;;;;;;3.50;1.52;;;26.70;61.40;;;;;;5000638;28;20038;-52
2023/07/17 11:28:57;;;;;;;2.60;1.38;;;26.50;60.50;;;;;;4978347;28;20069;-57
2023/07/17 11:31:29;;;;;;;3.42;1.20;;;26.60;59.70;;;;;;4999621;28;20039;-58
2023/07/17 11:33:59;;;;;;;2.25;1.00;;;26.60;58.40;;;;;;5009801;28;20036;-57
2023/07/17 11:36:47;;;;;;;4.40;1.02;;;26.60;58.60;;;;;;4999437;28;20037;-55
2023/07/17 11:39:21;;;;;;;6.50;1.42;;;26.90;59.20;;;;;;5004143;28;20042;-57
2023/07/17 11:41:55;;;;;;;3.17;1.38;;;26.90;57.40;;;;;;4980186;28;20085;-56
2023/07/17 11:44:25;;;;;;;13.10;1.17;;;26.70;57.60;;;;;;4988787;28;20023;-58
2023/07/17 11:46:57;;;;;;;2.35;1.05;;;27.20;57.70;;;;;;4997655;28;20042;-55
2023/07/17 11:49:27;;;;;;;3.28;0.85;;;27.50;56.50;;;;;;4973709;28;20035;-58
2023/07/17 11:51:55;;;;;;;6.43;1.95;;;27.50;57.00;;;;;;4997919;28;20474;-56
2023/07/17 11:54:21;;;;;;;5.90;1.20;;;27.80;56.30;;;;;;5011463;28;20061;-58
2023/07/17 11:56:47;;;;;;;3.55;0.85;;;27.70;54.80;;;;;;4998183;28;20055;-57
2023/07/17 11:59:31;;;;;;;1.23;0.90;;;27.20;55.00;;;;;;5012127;28;20034;-53
2023/07/17 12:01:57;;;;;;;2.25;1.00;;;27.10;55.50;;;;;;5001552;28;20049;-55
2023/07/17 12:04:26;;;;;;;5.90;1.15;;;26.90;55.10;;;;;;5010308;28;20037;-53
2023/07/17 12:06:55;;;;;;;3.63;1.48;;;26.90;55.70;;;;;;4980393;28;20061;-54
2023/07/17 12:09:22;;;;;;;1.10;0.60;;;27.40;56.60;;;;;;5011529;28;20034;-52
2023/07/17 12:11:48;;;;;;;2.30;0.82;;;27.70;54.60;;;;;;4993989;28;20031;-50
2023/07/17 12:14:15;;;;;;;2.40;0.80;;;27.70;54.80;;;;;;4990019;28;20496;-56
2023/07/17 12:16:42;;;;;;;1.35;0.65;;;27.30;55.10;;;;;;4987278;28;20019;-56
2023/07/17 12:19:08;;;;;;;2.58;1.00;;;27.40;55.80;;;;;;4996974;28;20026;-56
2023/07/17 12:21:34;;;;;;;3.45;1.17;;;27.30;56.60;;;;;;4975382;28;20034;-53
2023/07/17 12:24:00;;;;;;;3.92;0.90;;;27.10;56.50;;;;;;5010193;28;20225;-55
2023/07/17 12:26:26;;;;;;;2.03;0.57;;;27.20;56.40;;;;;;4998050;28;20117;-54
2023/07/17 12:28:52;;;;;;;2.13;0.88;;;27.70;56.10;;;;;;5007878;28;20034;-54
2023/07/17 12:31:18;;;;;;;1.92;0.80;;;27.90;55.90;;;;;;4999214;28;20457;-53
2023/07/17 12:33:43;;;;;;;0.88;0.40;;;28.00;55.00;;;;;;4989795;28;20433;-56
2023/07/17 12:36:10;;;;;;;1.80;0.77;;;27.70;55.00;;;;;;5000146;28;20532;-56
2023/07/17 12:38:36;;;;;;;2.95;0.52;;;27.60;55.60;;;;;;5006624;28;20033;-57
2023/07/17 12:41:02;;;;;;;3.42;0.80;;;28.10;54.80;;;;;;5001248;28;20401;-58
2023/07/17 12:43:27;;;;;;;2.47;0.68;;;28.30;54.30;;;;;;4996868;28;20030;-57
2023/07/17 12:45:53;;;;;;;1.35;0.77;;;27.60;54.50;;;;;;5002588;28;20149;-58